createdAt,value
2023-05-19T00:00:48.514Z,12.49
2023-05-19T00:03:18.350Z,12.55
2023-05-19T00:05:46.798Z,12.50
2023-05-19T00:08:17.596Z,12.49
2023-05-19T00:11:21.105Z,12.57
2023-05-19T00:13:34.249Z,12.53
2023-05-19T00:16:02.691Z,12.47
2023-05-19T00:18:30.685Z,12.54
2023-05-19T00:20:58.695Z,12.47
2023-05-19T00:23:29.923Z,12.51
2023-05-19T00:25:57.309Z,12.56
2023-05-19T00:28:25.058Z,12.49
2023-05-19T00:30:52.935Z,12.45
2023-05-19T00:33:20.130Z,12.54
2023-05-19T00:35:47.670Z,12.45
2023-05-19T00:38:15.162Z,12.40
2023-05-19T00:40:42.818Z,12.44
2023-05-19T00:43:10.572Z,12.44
2023-05-19T00:45:38.024Z,12.46
2023-05-19T00:48:05.089Z,12.43
2023-05-19T00:50:34.402Z,12.47
2023-05-19T00:53:02.250Z,12.36
2023-05-19T00:55:31.529Z,12.26
2023-05-19T00:57:59.446Z,12.28
2023-05-19T01:00:27.558Z,12.21
2023-05-19T01:02:56.886Z,12.23
2023-05-19T01:05:24.765Z,12.27
2023-05-19T01:07:54.245Z,12.21
2023-05-19T01:10:22.134Z,12.23
2023-05-19T01:12:49.952Z,12.23
2023-05-19T01:15:23.524Z,12.16
2023-05-19T01:18:08.094Z,12.26
2023-05-19T01:20:43.348Z,12.22
2023-05-19T01:23:37.066Z,12.21
2023-05-19T01:26:24.071Z,12.10
2023-05-19T01:29:09.462Z,12.16
2023-05-19T01:31:41.046Z,12.13
2023-05-19T01:34:11.399Z,12.15
2023-05-19T01:36:40.523Z,12.17
2023-05-19T01:39:08.332Z,12.17
2023-05-19T01:41:38.709Z,12.15
2023-05-19T01:44:06.307Z,12.13
2023-05-19T01:46:37.270Z,12.15
2023-05-19T01:49:07.652Z,12.16
2023-05-19T01:51:35.171Z,12.19
2023-05-19T01:54:06.033Z,12.18
2023-05-19T01:56:44.331Z,12.21
2023-05-19T01:59:28.162Z,12.19
2023-05-19T02:02:02.072Z,12.21
2023-05-19T02:04:44.641Z,12.19
2023-05-19T02:07:26.252Z,12.22
2023-05-19T02:10:19.389Z,12.17
2023-05-19T02:12:48.451Z,12.15
2023-05-19T02:15:27.705Z,12.15
2023-05-19T02:17:56.578Z,12.10
2023-05-19T02:20:24.694Z,12.17
2023-05-19T02:22:52.111Z,12.20
2023-05-19T02:25:19.494Z,12.20
2023-05-19T02:27:50.236Z,12.20
2023-05-19T02:30:20.661Z,12.23
2023-05-19T02:32:47.780Z,12.25
2023-05-19T02:35:14.768Z,12.28
2023-05-19T02:37:42.127Z,12.33
2023-05-19T02:40:09.438Z,12.34
2023-05-19T02:42:36.353Z,12.39
2023-05-19T02:45:03.284Z,12.41
2023-05-19T02:47:30.107Z,12.38
2023-05-19T02:49:57.008Z,12.36
2023-05-19T02:52:23.735Z,12.38
2023-05-19T02:54:50.788Z,12.34
2023-05-19T02:57:17.573Z,12.40
2023-05-19T02:59:45.016Z,12.43
2023-05-19T03:02:12.038Z,12.47
2023-05-19T03:04:42.312Z,12.46
2023-05-19T03:07:10.576Z,12.45
2023-05-19T03:09:38.160Z,12.42
2023-05-19T03:12:07.704Z,12.47
2023-05-19T03:14:39.103Z,12.48
2023-05-19T03:17:12.666Z,12.48
2023-05-19T03:19:39.669Z,12.55
2023-05-19T03:22:06.673Z,12.55
2023-05-19T03:24:33.767Z,12.57
2023-05-19T03:27:05.490Z,12.58
2023-05-19T03:29:35.867Z,12.61
2023-05-19T03:32:02.984Z,12.61
2023-05-19T03:34:29.838Z,12.56
2023-05-19T03:36:57.285Z,12.57
2023-05-19T03:39:24.456Z,12.58
2023-05-19T03:41:51.462Z,12.60
2023-05-19T03:44:18.312Z,12.64
2023-05-19T03:46:45.234Z,12.71
2023-05-19T03:49:15.511Z,12.74
2023-05-19T03:51:43.277Z,12.77
2023-05-19T03:54:10.374Z,12.79
2023-05-19T03:56:42.308Z,12.86
2023-05-19T03:59:13.460Z,12.87
2023-05-19T04:01:40.417Z,12.95
2023-05-19T04:04:07.927Z,13.04
2023-05-19T04:06:40.986Z,13.17
2023-05-19T04:09:15.062Z,13.32
2023-05-19T04:11:43.075Z,13.49
2023-05-19T04:14:13.173Z,13.55
2023-05-19T04:16:41.933Z,13.60
2023-05-19T04:19:08.878Z,13.74
2023-05-19T04:21:36.178Z,13.92
2023-05-19T04:24:06.798Z,14.07
2023-05-19T04:26:34.111Z,14.31
2023-05-19T04:29:15.508Z,14.40
2023-05-19T04:31:42.997Z,14.36
2023-05-19T04:34:10.682Z,14.36
2023-05-19T04:36:40.044Z,14.45
2023-05-19T04:39:10.030Z,14.50
2023-05-19T04:41:40.655Z,14.48
2023-05-19T04:44:09.824Z,14.49
2023-05-19T04:46:36.880Z,14.52
2023-05-19T04:49:04.014Z,14.73
2023-05-19T04:51:34.844Z,14.91
2023-05-19T04:54:01.760Z,15.02
2023-05-19T04:56:29.506Z,15.10
2023-05-19T04:58:56.385Z,15.28
2023-05-19T05:01:26.638Z,15.33
2023-05-19T05:03:55.650Z,15.29
2023-05-19T05:06:23.110Z,15.40
2023-05-19T05:09:00.175Z,15.59
2023-05-19T05:11:28.053Z,15.80
2023-05-19T05:16:40.257Z,16.18
2023-05-19T05:19:14.385Z,16.24
2023-05-19T05:21:42.735Z,16.44
2023-05-19T05:24:11.214Z,16.60
2023-05-19T05:26:39.241Z,16.78
2023-05-19T05:29:07.009Z,16.88
2023-05-19T05:31:34.055Z,16.92
2023-05-19T05:37:28.123Z,17.17
2023-05-19T05:39:56.238Z,17.33
2023-05-19T05:42:31.431Z,17.27
2023-05-19T05:44:59.385Z,17.46
2023-05-19T05:47:31.469Z,17.80
2023-05-19T05:49:59.552Z,17.90
2023-05-19T05:52:35.421Z,18.05
2023-05-19T05:55:09.279Z,18.21
2023-05-19T06:00:31.580Z,18.45
2023-05-19T06:02:59.597Z,18.62
2023-05-19T06:05:26.949Z,18.76
2023-05-19T06:07:55.420Z,18.55
2023-05-19T06:10:27.653Z,18.62
2023-05-19T06:13:01.009Z,18.79
2023-05-19T06:15:28.556Z,18.84
2023-05-19T06:17:55.676Z,19.01
2023-05-19T06:20:27.671Z,19.11
2023-05-19T06:22:58.312Z,19.10
2023-05-19T06:25:25.932Z,18.99
2023-05-19T06:27:59.130Z,19.01
2023-05-19T06:31:06.968Z,18.98
2023-05-19T06:36:39.311Z,19.28
2023-05-19T06:39:06.996Z,19.18
2023-05-19T06:41:46.738Z,19.37
2023-05-19T06:45:33.606Z,19.57
2023-05-19T06:48:18.325Z,19.80
2023-05-19T06:54:16.609Z,20.41
2023-05-19T06:56:50.484Z,20.65
2023-05-19T06:59:28.476Z,20.40
2023-05-19T07:01:55.285Z,20.26
2023-05-19T07:04:45.141Z,20.41
2023-05-19T07:07:24.519Z,20.46
2023-05-19T07:10:01.121Z,20.64
2023-05-19T07:12:52.206Z,20.56
2023-05-19T07:15:36.130Z,20.46
2023-05-19T07:18:13.924Z,20.50
2023-05-19T07:23:28.320Z,21.06
2023-05-19T07:25:57.376Z,21.09
2023-05-19T07:28:31.041Z,21.09
2023-05-19T07:30:59.048Z,21.33
2023-05-19T07:33:27.148Z,21.56
2023-05-19T07:35:54.329Z,21.87
2023-05-19T07:38:21.883Z,22.21
2023-05-19T07:40:49.047Z,22.46
2023-05-19T07:43:19.220Z,22.92
2023-05-19T07:45:46.993Z,22.92
2023-05-19T07:48:19.305Z,22.61
2023-05-19T07:50:47.139Z,22.55
2023-05-19T07:53:14.880Z,22.57
2023-05-19T07:55:42.062Z,22.53
2023-05-19T07:58:09.587Z,22.50
2023-05-19T08:00:37.046Z,22.55
2023-05-19T08:03:07.809Z,22.35
2023-05-19T08:05:47.622Z,21.98
2023-05-19T08:08:17.101Z,21.88
2023-05-19T08:10:44.378Z,21.62
2023-05-19T08:13:12.083Z,21.57
2023-05-19T08:15:40.282Z,21.80
2023-05-19T08:18:10.255Z,21.88
2023-05-19T08:20:37.970Z,21.80
2023-05-19T08:23:14.722Z,21.68
2023-05-19T08:25:42.091Z,21.54
2023-05-19T08:28:09.037Z,21.40
2023-05-19T08:30:35.967Z,21.40
2023-05-19T08:33:02.945Z,21.74
2023-05-19T08:35:36.601Z,22.15
2023-05-19T08:38:04.070Z,22.45
2023-05-19T08:40:33.762Z,22.45
2023-05-19T08:43:01.564Z,22.34
2023-05-19T08:45:31.741Z,22.59
2023-05-19T08:47:59.254Z,22.93
2023-05-19T08:50:32.515Z,23.16
2023-05-19T08:53:21.023Z,23.18
2023-05-19T08:56:19.825Z,23.35
2023-05-19T08:58:52.040Z,23.22
2023-05-19T09:01:20.673Z,23.08
2023-05-19T09:03:50.426Z,23.30
2023-05-19T09:06:18.202Z,23.72
2023-05-19T09:08:45.383Z,23.92
2023-05-19T09:11:18.134Z,24.40
2023-05-19T09:13:45.693Z,24.82
2023-05-19T09:16:13.739Z,24.54
2023-05-19T09:19:05.054Z,24.10
2023-05-19T09:21:33.494Z,24.06
2023-05-19T09:24:22.111Z,24.11
2023-05-19T09:26:49.304Z,24.20
2023-05-19T09:29:21.554Z,24.33
2023-05-19T09:32:01.141Z,24.61
2023-05-19T09:37:52.436Z,24.94
2023-05-19T09:40:32.742Z,25.18
2023-05-19T09:42:59.895Z,25.34
2023-05-19T09:45:28.573Z,25.16
2023-05-19T09:47:55.677Z,25.13
2023-05-19T09:50:24.020Z,24.99
2023-05-19T09:52:52.212Z,24.98
2023-05-19T09:55:23.425Z,25.17
2023-05-19T09:57:51.591Z,24.99
2023-05-19T10:00:23.695Z,24.69
2023-05-19T10:02:51.730Z,24.65
2023-05-19T10:05:20.949Z,24.40
2023-05-19T10:07:52.656Z,24.40
2023-05-19T10:10:23.366Z,24.21
2023-05-19T10:12:51.134Z,24.12
2023-05-19T10:15:22.919Z,24.02
2023-05-19T10:17:51.031Z,23.97
2023-05-19T10:20:18.415Z,24.30
2023-05-19T10:22:46.572Z,24.60
2023-05-19T10:25:18.748Z,24.66
2023-05-19T10:28:08.645Z,24.49
2023-05-19T10:30:44.835Z,24.37
2023-05-19T10:33:16.910Z,24.47
2023-05-19T10:36:09.146Z,24.64
2023-05-19T10:38:59.326Z,24.85
2023-05-19T10:41:46.960Z,24.91
2023-05-19T10:44:32.181Z,24.94
2023-05-19T10:46:59.410Z,24.74
2023-05-19T10:49:26.504Z,24.70
2023-05-19T10:51:57.065Z,24.82
2023-05-19T10:54:41.144Z,25.02
2023-05-19T10:57:09.322Z,25.25
2023-05-19T10:59:40.117Z,25.38
2023-05-19T11:02:09.664Z,25.36
2023-05-19T11:04:41.520Z,25.47
2023-05-19T11:07:11.486Z,25.37
2023-05-19T11:09:42.533Z,25.25
2023-05-19T11:12:11.161Z,25.02
2023-05-19T11:14:40.617Z,24.43
2023-05-19T11:17:18.678Z,23.91
2023-05-19T11:19:59.123Z,23.99
2023-05-19T11:22:28.297Z,24.19
2023-05-19T11:24:58.582Z,24.15
2023-05-19T11:27:31.741Z,24.32
2023-05-19T11:30:09.985Z,24.50
2023-05-19T11:32:42.323Z,24.58
2023-05-19T11:35:13.496Z,24.69
2023-05-19T11:37:41.994Z,24.94
2023-05-19T11:40:09.969Z,24.89
2023-05-19T11:42:42.742Z,24.86
2023-05-19T11:45:10.922Z,24.88
2023-05-19T11:47:56.471Z,24.70
2023-05-19T11:50:26.833Z,24.45
2023-05-19T11:52:54.864Z,24.34
2023-05-19T11:55:23.625Z,24.42
2023-05-19T11:58:05.529Z,24.57
2023-05-19T12:00:57.320Z,24.52
2023-05-19T12:03:33.876Z,24.56
2023-05-19T12:06:03.765Z,24.59
2023-05-19T12:08:30.996Z,24.72
2023-05-19T12:10:58.542Z,25.11
2023-05-19T12:13:25.302Z,25.17
2023-05-19T12:15:54.116Z,24.73
2023-05-19T12:18:21.569Z,24.65
2023-05-19T12:20:48.954Z,25.01
2023-05-19T12:23:16.693Z,25.23
2023-05-19T12:25:43.735Z,25.41
2023-05-19T12:28:10.726Z,25.45
2023-05-19T12:30:38.119Z,25.31
2023-05-19T12:33:05.561Z,25.33
2023-05-19T12:35:38.818Z,25.55
2023-05-19T12:38:07.250Z,25.58
2023-05-19T12:40:38.892Z,25.44
2023-05-19T12:43:06.987Z,25.68
2023-05-19T12:45:38.541Z,25.83
2023-05-19T12:48:11.784Z,26.21
2023-05-19T12:50:40.587Z,26.18
2023-05-19T12:53:14.908Z,26.19
2023-05-19T12:55:46.916Z,26.14
2023-05-19T12:58:19.114Z,25.86
2023-05-19T13:00:48.849Z,25.55
2023-05-19T13:03:17.046Z,25.22
2023-05-19T13:05:50.760Z,24.96
2023-05-19T13:08:20.480Z,24.63
2023-05-19T13:10:51.598Z,24.26
2023-05-19T13:13:19.827Z,24.03
2023-05-19T13:15:53.882Z,23.94
2023-05-19T13:18:22.228Z,24.13
2023-05-19T13:20:53.845Z,24.35
2023-05-19T13:23:28.014Z,24.55
2023-05-19T13:25:55.658Z,24.28
2023-05-19T13:28:23.082Z,24.11
2023-05-19T13:30:51.937Z,23.98
2023-05-19T13:33:19.375Z,23.86
2023-05-19T13:35:46.167Z,23.78
2023-05-19T13:38:13.739Z,23.76
2023-05-19T13:40:41.195Z,23.87
2023-05-19T13:43:11.873Z,23.67
2023-05-19T13:45:43.147Z,22.33
2023-05-19T13:48:12.365Z,20.85
2023-05-19T13:50:39.517Z,19.81
2023-05-19T13:53:07.073Z,18.99
2023-05-19T13:55:34.113Z,18.77
2023-05-19T13:58:01.346Z,18.51
2023-05-19T14:00:32.910Z,18.04
2023-05-19T14:03:06.977Z,17.85
2023-05-19T14:05:37.964Z,17.40
2023-05-19T14:08:10.684Z,16.85
2023-05-19T14:10:49.464Z,16.48
2023-05-19T14:13:32.679Z,15.77
2023-05-19T14:16:06.903Z,15.39
2023-05-19T14:18:44.541Z,15.25
2023-05-19T14:21:17.123Z,15.16
2023-05-19T14:24:00.485Z,15.07
2023-05-19T14:26:34.113Z,15.04
2023-05-19T14:29:14.811Z,14.94
2023-05-19T14:31:42.917Z,14.94
2023-05-19T14:34:10.460Z,14.95
2023-05-19T14:36:41.323Z,15.05
2023-05-19T14:39:15.312Z,15.14
2023-05-19T14:41:46.375Z,15.07
2023-05-19T14:44:14.348Z,15.07
2023-05-19T14:46:41.933Z,15.13
2023-05-19T14:49:09.666Z,15.13
2023-05-19T14:51:37.621Z,15.15
2023-05-19T14:54:08.218Z,15.20
2023-05-19T14:56:45.040Z,15.33
2023-05-19T14:59:12.261Z,15.28
2023-05-19T15:01:39.936Z,15.36
2023-05-19T15:04:07.305Z,15.35
2023-05-19T15:06:34.934Z,15.36
2023-05-19T15:09:14.639Z,15.39
2023-05-19T15:11:42.176Z,15.31
2023-05-19T15:14:10.258Z,15.22
2023-05-19T15:16:46.940Z,15.16
2023-05-19T15:19:49.280Z,15.14
2023-05-19T15:22:21.131Z,15.17
2023-05-19T15:24:51.965Z,15.13
2023-05-19T15:27:32.281Z,15.17
2023-05-19T15:30:00.559Z,15.16
2023-05-19T15:32:30.738Z,15.13
2023-05-19T15:34:58.076Z,15.07
2023-05-19T15:37:25.424Z,15.12
2023-05-19T15:39:55.830Z,15.10
2023-05-19T15:42:26.286Z,15.07
2023-05-19T15:44:53.586Z,15.08
2023-05-19T15:47:20.599Z,15.10
2023-05-19T15:49:47.921Z,15.09
2023-05-19T15:52:14.675Z,15.13
2023-05-19T15:54:42.153Z,15.15
2023-05-19T15:57:08.943Z,15.15
2023-05-19T15:59:35.944Z,15.23
2023-05-19T16:02:03.037Z,15.29
2023-05-19T16:04:30.250Z,15.23
2023-05-19T16:06:57.398Z,15.20
2023-05-19T16:09:24.613Z,15.16
2023-05-19T16:11:51.633Z,15.13
2023-05-19T16:14:18.490Z,15.16
2023-05-19T16:16:45.883Z,15.23
2023-05-19T16:19:13.320Z,15.26
2023-05-19T16:21:40.464Z,15.28
2023-05-19T16:24:07.589Z,15.17
2023-05-19T16:26:34.916Z,15.19
2023-05-19T16:29:02.112Z,15.16
2023-05-19T16:31:41.230Z,15.16
2023-05-19T16:34:08.591Z,15.14
2023-05-19T16:36:35.341Z,15.09
2023-05-19T16:39:02.362Z,15.17
2023-05-19T16:41:29.081Z,15.16
2023-05-19T16:43:56.132Z,15.12
2023-05-19T16:46:23.403Z,15.11
2023-05-19T16:48:51.227Z,15.06
2023-05-19T16:51:18.013Z,15.14
2023-05-19T16:53:48.455Z,15.07
2023-05-19T16:56:18.936Z,15.00
2023-05-19T16:58:49.606Z,15.00
2023-05-19T17:01:20.482Z,14.94
2023-05-19T17:03:47.444Z,14.87
2023-05-19T17:06:14.463Z,14.87
2023-05-19T17:08:44.134Z,14.82
2023-05-19T17:11:11.631Z,14.82
2023-05-19T17:13:38.810Z,14.80
2023-05-19T17:16:06.128Z,14.75
2023-05-19T17:18:32.978Z,14.74
2023-05-19T17:21:10.971Z,14.78
2023-05-19T17:23:38.484Z,14.76
2023-05-19T17:26:05.567Z,14.69
2023-05-19T17:28:32.691Z,14.58
2023-05-19T17:30:59.776Z,14.56
2023-05-19T17:33:29.069Z,14.56
2023-05-19T17:35:56.298Z,14.58
2023-05-19T17:38:26.442Z,14.53
2023-05-19T17:41:02.583Z,14.52
2023-05-19T17:43:29.857Z,14.37
2023-05-19T17:45:58.794Z,14.27
2023-05-19T17:48:27.368Z,14.18
2023-05-19T17:50:54.980Z,14.15
2023-05-19T17:53:23.103Z,14.10
2023-05-19T17:55:58.737Z,14.01
2023-05-19T17:58:26.625Z,13.96
2023-05-19T18:00:57.218Z,13.93
2023-05-19T18:03:25.518Z,13.82
2023-05-19T18:06:03.928Z,13.78
2023-05-19T18:08:32.476Z,13.79
2023-05-19T18:11:00.815Z,13.77
2023-05-19T18:13:44.433Z,13.72
2023-05-19T18:16:12.642Z,13.73
2023-05-19T18:18:43.862Z,13.68
2023-05-19T18:21:20.940Z,13.57
2023-05-19T18:23:48.358Z,13.47
2023-05-19T18:26:16.451Z,13.46
2023-05-19T18:28:43.885Z,13.42
2023-05-19T18:31:16.126Z,13.39
2023-05-19T18:33:49.204Z,13.30
2023-05-19T18:36:19.651Z,13.28
2023-05-19T18:38:48.507Z,13.20
2023-05-19T18:41:16.099Z,13.13
2023-05-19T18:43:56.421Z,13.14
2023-05-19T18:46:23.794Z,13.17
2023-05-19T18:48:56.725Z,13.26
2023-05-19T18:51:24.152Z,13.13
2023-05-19T18:53:51.760Z,13.11
2023-05-19T18:56:31.939Z,13.14
2023-05-19T18:59:00.463Z,13.10
2023-05-19T19:01:28.598Z,13.03
2023-05-19T19:03:56.158Z,13.02
2023-05-19T19:06:26.491Z,12.98
2023-05-19T19:08:54.310Z,12.94
2023-05-19T19:11:24.674Z,12.89
2023-05-19T19:13:54.962Z,12.86
2023-05-19T19:16:22.865Z,12.87
2023-05-19T19:18:53.086Z,12.90
2023-05-19T19:21:22.625Z,12.81
2023-05-19T19:24:14.238Z,12.66
2023-05-19T19:26:45.190Z,12.67
2023-05-19T19:29:14.382Z,12.69
2023-05-19T19:31:42.157Z,12.71
2023-05-19T19:34:12.777Z,12.69
2023-05-19T19:36:48.304Z,12.71
2023-05-19T19:39:18.575Z,12.75
2023-05-19T19:41:46.517Z,12.75
2023-05-19T19:44:14.352Z,12.68
2023-05-19T19:46:41.914Z,12.60
2023-05-19T19:49:09.174Z,12.59
2023-05-19T19:51:37.142Z,12.66
2023-05-19T19:54:05.477Z,12.67
2023-05-19T19:56:35.806Z,12.58
2023-05-19T19:59:03.655Z,12.62
2023-05-19T20:01:35.502Z,12.62
2023-05-19T20:04:03.201Z,12.49
2023-05-19T20:06:37.660Z,12.42
2023-05-19T20:09:05.464Z,12.32
2023-05-19T20:11:32.786Z,12.38
2023-05-19T20:14:00.442Z,12.37
2023-05-19T20:16:28.824Z,12.27
2023-05-19T20:18:56.257Z,12.22
2023-05-19T20:21:23.694Z,12.17
2023-05-19T20:23:51.949Z,12.19
2023-05-19T20:26:23.064Z,12.14
2023-05-19T20:28:50.346Z,12.16
2023-05-19T20:31:22.124Z,12.08
2023-05-19T20:33:50.131Z,12.02
2023-05-19T20:36:17.516Z,11.99
2023-05-19T20:38:45.330Z,12.09
2023-05-19T20:41:15.841Z,12.02
2023-05-19T20:43:44.741Z,11.92
2023-05-19T20:46:12.436Z,11.91
2023-05-19T20:48:43.198Z,11.90
2023-05-19T20:51:11.164Z,11.84
2023-05-19T20:53:41.028Z,11.80
2023-05-19T20:56:11.233Z,11.74
2023-05-19T20:58:38.963Z,11.77
2023-05-19T21:01:06.864Z,11.69
2023-05-19T21:03:34.897Z,11.63
2023-05-19T21:06:05.640Z,11.57
2023-05-19T21:08:32.711Z,11.58
2023-05-19T21:10:59.790Z,11.52
2023-05-19T21:13:26.978Z,11.51
2023-05-19T21:15:59.852Z,11.52
2023-05-19T21:18:27.108Z,11.42
2023-05-19T21:20:54.359Z,11.39
2023-05-19T21:23:21.966Z,11.34
2023-05-19T21:25:50.798Z,11.31
2023-05-19T21:28:18.013Z,11.28
2023-05-19T21:30:49.686Z,11.32
2023-05-19T21:33:21.642Z,11.40
2023-05-19T21:35:52.539Z,11.35
2023-05-19T21:38:23.801Z,11.41
2023-05-19T21:40:54.718Z,11.31
2023-05-19T21:43:22.930Z,11.27
2023-05-19T21:45:50.322Z,11.30
2023-05-19T21:48:24.226Z,11.29
2023-05-19T21:50:56.330Z,11.22
2023-05-19T21:53:24.259Z,11.25
2023-05-19T21:55:54.701Z,11.30
2023-05-19T21:58:31.058Z,11.26
2023-05-19T22:00:58.562Z,11.21
2023-05-19T22:03:26.618Z,11.14
2023-05-19T22:05:55.702Z,11.14
2023-05-19T22:08:22.792Z,11.12
2023-05-19T22:10:53.546Z,11.27
2023-05-19T22:13:21.017Z,11.23
2023-05-19T22:15:48.352Z,11.22
2023-05-19T22:18:16.087Z,11.19
2023-05-19T22:20:43.424Z,11.10
2023-05-19T22:23:10.967Z,11.05
2023-05-19T22:25:38.617Z,11.05
2023-05-19T22:28:08.081Z,11.09
2023-05-19T22:30:41.115Z,11.09
2023-05-19T22:33:12.459Z,11.01
2023-05-19T22:35:40.304Z,10.93
2023-05-19T22:38:10.295Z,10.91
2023-05-19T22:40:38.211Z,10.99
2023-05-19T22:43:05.860Z,10.92
2023-05-19T22:45:34.600Z,10.86
2023-05-19T22:48:02.319Z,10.76
2023-05-19T22:50:29.693Z,10.75
2023-05-19T22:52:57.160Z,10.83
2023-05-19T22:55:27.103Z,10.77
2023-05-19T22:57:54.184Z,10.64
2023-05-19T23:00:21.406Z,10.64
2023-05-19T23:02:49.072Z,10.66
2023-05-19T23:05:19.673Z,10.58
2023-05-19T23:07:47.472Z,10.55
2023-05-19T23:10:15.253Z,10.51
2023-05-19T23:12:42.984Z,10.46
2023-05-19T23:15:11.993Z,10.37
2023-05-19T23:17:42.310Z,10.34
2023-05-19T23:20:11.055Z,10.31
2023-05-19T23:22:41.415Z,10.35
2023-05-19T23:25:09.223Z,10.16
2023-05-19T23:27:39.812Z,10.13
2023-05-19T23:30:09.566Z,10.15
2023-05-19T23:32:37.212Z,10.13
2023-05-19T23:35:20.330Z,10.09
2023-05-19T23:37:47.989Z,10.06
2023-05-19T23:40:19.048Z,10.03
2023-05-19T23:42:46.798Z,10.03
2023-05-19T23:45:15.368Z,9.97
2023-05-19T23:47:42.784Z,9.96
2023-05-19T23:50:10.480Z,10.04
2023-05-19T23:52:37.697Z,9.96
2023-05-19T23:55:05.521Z,9.97
2023-05-19T23:57:32.801Z,9.98
